Seven Seas — J8B5110 — position and weather

sailwx.info

Track history (hours):
 
Tides and Currents Weather Stations Pressure Air Temp Water Temp Dewpoint Dewpoint Depression Visibility Wind Speed Wind Dir Waves Ship Positions

Seven Seas

Last reported at 2017-Sep-21 12:59 UTC. Time now 2017-Sep-21 18:05 UTC.
Position N 32°53' E 034°59'.

Length 88 m; draft 5.6 m.

Type: Cargo ship. MMSI: 376783000.

Date/timePositionNaut miles runAvg speedWind from/ knotsBaromVisibWave heightAir tempDewpointWater temp
2017-Sep-21 12:59N 32°53' E 034°59'10 6.7
2017-Sep-21 11:25N 32°56' E 034°47'4 8.7
2017-Sep-21 10:59N 32°57' E 034°43'  
2017-Sep-17 16:17N 32°50' E 035°01'2 0.1
2017-Sep-16 08:41N 32°49' E 035°02'2 5.4
2017-Sep-16 08:24N 32°50' E 035°01'143 3.0
2017-Sep-14 08:19N 34°56' E 033°39'0 0.1
2017-Sep-14 07:55N 34°56' E 033°39'84 9.5
2017-Sep-13 23:04N 33°39' E 034°19'110.1
2017-Sep-13 22:56N 33°38' E 034°20'410.1
2017-Sep-13 22:31N 33°34' E 034°22'510.3
2017-Sep-13 22:00N 33°29' E 034°25'1710.5
2017-Sep-13 20:23N 33°13' E 034°32'510.5
2017-Sep-13 19:55N 33°09' E 034°35'410.3
2017-Sep-13 19:30N 33°05' E 034°37'510.2
2017-Sep-13 19:00N 33°01' E 034°40'5 9.9
2017-Sep-13 18:30N 32°57' E 034°45'510.6
2017-Sep-13 18:00N 32°55' E 034°50'510.6
2017-Sep-13 17:30N 32°53' E 034°56'5 9.4
2017-Sep-13 17:00N 32°51' E 035°01'0 0.0
2017-Sep-11 23:53N 32°50' E 035°01'  
Track history (hours):
 
Tides and Currents Weather Stations Pressure Air Temp Water Temp Dewpoint Dewpoint Depression Visibility Wind Speed Wind Dir Waves Ship Positions

Seven Seas

Last reported at 2017-Sep-21 12:59 UTC. Time now 2017-Sep-21 18:05 UTC.
Position N 32°53' E 034°59'.

Length 88 m; draft 5.6 m.

Type: Cargo ship. MMSI: 376783000.

Date/timePositionNaut miles runAvg speedWind from/ knotsBaromVisibWave heightAir tempDewpointWater temp
2017-Sep-21 12:59N 32°53' E 034°59'10 6.7
2017-Sep-21 11:25N 32°56' E 034°47'4 8.7
2017-Sep-21 10:59N 32°57' E 034°43'  
2017-Sep-17 16:17N 32°50' E 035°01'2 0.1
2017-Sep-16 08:41N 32°49' E 035°02'2 5.4
2017-Sep-16 08:24N 32°50' E 035°01'143 3.0
2017-Sep-14 08:19N 34°56' E 033°39'0 0.1
2017-Sep-14 07:55N 34°56' E 033°39'84 9.5
2017-Sep-13 23:04N 33°39' E 034°19'110.1
2017-Sep-13 22:56N 33°38' E 034°20'410.1
2017-Sep-13 22:31N 33°34' E 034°22'510.3
2017-Sep-13 22:00N 33°29' E 034°25'1710.5
2017-Sep-13 20:23N 33°13' E 034°32'510.5
2017-Sep-13 19:55N 33°09' E 034°35'410.3
2017-Sep-13 19:30N 33°05' E 034°37'510.2
2017-Sep-13 19:00N 33°01' E 034°40'5 9.9
2017-Sep-13 18:30N 32°57' E 034°45'510.6
2017-Sep-13 18:00N 32°55' E 034°50'510.6
2017-Sep-13 17:30N 32°53' E 034°56'5 9.4
2017-Sep-13 17:00N 32°51' E 035°01'0 0.0
2017-Sep-11 23:53N 32°50' E 035°01'  

Dump ship's entire track history